Time;durP1;ratioP1;P1;durP2;ratioP2;P2;SDS_P1;SDS_P2;PMS_P1;PMS_P2;Temp;Humidity;BMP_temperature;BMP_pressure;BME280_temperature;BME280_humidity;BME280_pressure;Samples;Min_cycle;Max_cycle;Signal;HPM_P1;HPM_P2
2022/06/20 00:02:32;;;;;;;12.80;5.40;;;;;;;-143.10;81.17;51018.50;4851232;29;20046;-65
2022/06/20 00:05:25;;;;;;;14.43;6.15;;;;;;;-143.10;81.81;50973.47;4850196;29;20485;-64
2022/06/20 00:08:10;;;;;;;9.70;5.00;;;;;;;-143.10;80.61;50987.19;4851686;29;20117;-65
2022/06/20 00:11:06;;;;;;;20.23;6.97;;;;;;;-143.10;81.77;50993.06;4852004;29;20053;-65
2022/06/20 00:13:44;;;;;;;17.00;6.90;;;;;;;-143.10;80.26;51006.75;4851344;29;20057;-64
2022/06/20 00:16:34;;;;;;;25.33;8.95;;;;;;;-143.10;82.21;50979.34;4850498;29;20058;-65
2022/06/20 00:19:18;;;;;;;28.70;11.75;;;;;;;-143.10;80.62;50979.34;4849282;29;20089;-65
2022/06/20 00:22:13;;;;;;;34.00;12.25;;;;;;;-143.10;80.30;51002.84;4851992;29;20514;-65
2022/06/20 00:24:48;;;;;;;36.83;14.15;;;;;;;-143.10;80.87;50985.22;4834829;29;20069;-65
2022/06/20 00:27:45;;;;;;;41.67;14.25;;;;;;;-143.10;80.80;50995.03;4838954;29;20057;-65
2022/06/20 00:30:22;;;;;;;45.20;14.63;;;;;;;-143.10;79.29;50967.59;4852019;29;20156;-65
2022/06/20 00:33:11;;;;;;;38.22;15.73;;;;;;;-143.10;79.94;50983.28;4850968;29;20060;-65
2022/06/20 00:35:54;;;;;;;41.85;17.55;;;;;;;-143.10;80.74;51016.56;4852000;29;20578;-65
2022/06/20 00:38:37;;;;;;;43.15;17.52;;;;;;;-143.10;79.70;50979.34;4851655;29;20060;-65
2022/06/20 00:41:38;;;;;;;51.40;20.15;;;;;;;-143.10;81.31;50936.28;4851544;29;20054;-65
2022/06/20 00:44:19;;;;;;;45.30;19.27;;;;;;;-143.10;80.50;50983.28;4851703;29;20054;-65
2022/06/20 00:47:21;;;;;;;61.30;25.00;;;;;;;-143.10;79.41;50981.31;4851906;29;20050;-66
2022/06/20 00:50:27;;;;;;;59.35;24.00;;;;;;;-143.10;80.75;51014.59;4851394;29;20054;-65
2022/06/20 00:53:27;;;;;;;61.38;28.95;;;;;;;-143.10;77.67;50989.16;4851575;29;20057;-65
2022/06/20 00:56:24;;;;;;;81.70;32.95;;;;;;;-143.10;77.45;50967.59;4851646;29;20046;-66
2022/06/20 00:59:21;;;;;;;;;;;;;;;-143.10;76.83;50991.09;4853798;29;20053;-64
2022/06/20 01:02:00;;;;;;;89.32;36.38;;;;;;;-143.10;77.74;51006.75;4855131;29;20321;-65
2022/06/20 01:04:59;;;;;;;92.63;41.25;;;;;;;-143.10;78.37;50993.06;4854566;29;20060;-65
2022/06/20 01:07:55;;;;;;;90.50;41.20;;;;;;;-143.10;77.09;50993.06;4854927;29;20595;-65
2022/06/20 01:10:58;;;;;;;95.43;41.63;;;;;;;-143.10;76.40;50965.66;4854712;29;20069;-65
2022/06/20 01:13:41;;;;;;;93.90;41.95;;;;;;;-143.10;75.38;50991.09;4854693;29;20057;-65
2022/06/20 01:16:34;;;;;;;89.47;38.60;;;;;;;-143.10;70.39;50975.44;4854430;29;20154;-65
2022/06/20 01:19:28;;;;;;;88.32;40.58;;;;;;;-143.10;72.51;50987.19;4854158;29;20049;-65
2022/06/20 01:22:29;;;;;;;82.55;37.33;;;;;;;-143.10;69.00;51022.44;4854063;29;20049;-65
2022/06/20 01:25:48;;;;;;;77.53;35.53;;;;;;;-143.10;71.23;50967.59;4847311;29;20053;-65
2022/06/20 01:28:36;;;;;;;78.88;34.95;;;;;;;-143.10;69.68;50995.03;4854555;29;20065;-65
2022/06/20 01:31:26;;;;;;;86.13;35.78;;;;;;;-143.10;71.24;50985.22;4853038;29;20497;-65
2022/06/20 01:34:20;;;;;;;73.65;34.35;;;;;;;-143.10;69.59;50961.72;4853943;29;20076;-65
2022/06/20 01:37:29;;;;;;;72.25;33.78;;;;;;;-143.10;72.25;51002.84;4854431;29;20053;-65
2022/06/20 01:40:18;;;;;;;68.30;31.60;;;;;;;-143.10;73.73;50991.09;4854299;29;20073;-65
2022/06/20 01:43:07;;;;;;;71.35;31.25;;;;;;;-143.10;74.65;50983.28;4854295;29;20053;-65
2022/06/20 01:45:57;;;;;;;72.05;32.63;;;;;;;-143.10;70.01;50934.31;4854644;29;20574;-65
2022/06/20 01:48:51;;;;;;;59.72;27.23;;;;;;;-143.10;68.40;50955.88;4855919;29;20053;-65
2022/06/20 01:51:52;;;;;;;42.47;19.70;;;;;;;-143.10;58.98;50967.59;4854654;29;20057;-65
2022/06/20 01:54:40;;;;;;;45.55;18.60;;;;;;;-143.10;55.86;50938.25;4866229;29;20053;-65
2022/06/20 01:57:30;;;;;;;45.47;17.85;;;;;;;-143.10;61.87;50955.88;4852514;29;20319;-65
2022/06/20 02:00:19;;;;;;;38.47;16.33;;;;;;;-143.10;57.57;50969.56;4853725;29;20053;-67
2022/06/20 02:03:17;;;;;;;45.28;16.00;;;;;;;-143.10;55.59;50918.66;4853290;29;20049;-66
2022/06/20 02:06:01;;;;;;;62.35;16.52;;;;;;;-143.10;56.00;50936.28;4854008;29;20132;-66
2022/06/20 02:08:57;;;;;;;34.85;13.55;;;;;;;-143.10;50.25;50938.25;4853810;29;20057;-65
2022/06/20 02:11:42;;;;;;;22.45;9.68;;;;;;;-143.10;49.06;50924.53;4853732;29;20130;-66
2022/06/20 02:14:55;;;;;;;17.90;8.95;;;;;;;-143.10;47.62;50934.31;4853478;29;20122;-66
2022/06/20 02:17:41;;;;;;;20.85;9.70;;;;;;;-143.10;53.45;50932.38;4853457;29;20072;-64
2022/06/20 02:20:45;;;;;;;23.75;11.27;;;;;;;-143.10;47.62;50916.72;4852516;29;20061;-65
2022/06/20 02:23:35;;;;;;;29.33;11.68;;;;;;;-143.10;46.47;50932.38;4853326;29;20124;-65
2022/06/20 02:26:28;;;;;;;26.13;12.98;;;;;;;-143.10;46.95;50920.63;4853298;29;20428;-64
2022/06/20 02:29:23;;;;;;;24.42;12.25;;;;;;;-143.10;45.23;50912.78;4852567;29;20065;-65
2022/06/20 02:32:30;;;;;;;26.83;12.15;;;;;;;-143.10;43.36;50908.88;4852800;29;20072;-65
2022/06/20 02:35:11;;;;;;;33.35;13.95;;;;;;;-143.10;46.50;50881.47;4848626;29;20141;-65
2022/06/20 02:38:00;;;;;;;31.02;13.35;;;;;;;-143.10;47.47;50930.41;4848386;29;20062;-66
2022/06/20 02:40:45;;;;;;;27.95;13.25;;;;;;;-143.10;46.77;50916.72;4849313;29;20390;-66
2022/06/20 02:44:13;;;;;;;28.08;12.93;;;;;;;-143.10;47.15;50912.78;4850520;29;20065;-65
2022/06/20 02:46:51;;;;;;;23.48;11.82;;;;;;;-143.10;44.97;50928.44;4851918;29;20482;-66
2022/06/20 02:49:47;;;;;;;25.27;10.30;;;;;;;-143.10;42.79;50895.16;4855226;29;20488;-66
2022/06/20 02:52:59;;;;;;;22.17;12.13;;;;;;;-143.10;40.57;50881.47;4848530;29;20053;-65
2022/06/20 02:55:48;;;;;;;34.42;14.70;;;;;;;-143.10;41.36;50899.09;4853030;29;20049;-66
2022/06/20 02:58:43;;;;;;;27.83;13.82;;;;;;;-143.10;40.46;50916.72;4853202;29;20077;-65
2022/06/20 03:01:41;;;;;;;37.42;15.63;;;;;;;-143.10;40.92;50924.53;4852893;29;20133;-65
2022/06/20 03:04:34;;;;;;;26.80;12.68;;;;;;;-143.10;43.17;50914.75;4847093;29;20138;-65
2022/06/20 03:07:36;;;;;;;25.60;13.02;;;;;;;-143.10;42.25;50885.38;4836122;29;20085;-65
2022/06/20 03:10:33;;;;;;;24.13;12.45;;;;;;;-143.10;40.72;50897.13;4839855;29;20078;-64
2022/06/20 03:13:23;;;;;;;31.88;14.60;;;;;;;-143.10;41.41;50904.97;4852448;29;20057;-65
2022/06/20 03:16:07;;;;;;;31.95;13.25;;;;;;;-143.10;42.80;50912.78;4852539;29;20053;-65
2022/06/20 03:18:57;;;;;;;31.90;13.48;;;;;;;-143.10;44.00;50893.22;4852040;29;20073;-65
2022/06/20 03:21:43;;;;;;;30.25;12.68;;;;;;;-143.10;42.79;50881.47;4850720;29;20136;-66
2022/06/20 03:24:33;;;;;;;34.17;11.77;;;;;;;-143.10;41.49;50889.31;4852261;29;20088;-66
2022/06/20 03:27:33;;;;;;;32.10;14.65;;;;;;;-143.10;38.23;50885.38;4852352;29;20057;-65
2022/06/20 03:30:38;;;;;;;33.92;16.98;;;;;;;-143.10;40.38;50903.00;4852480;29;20863;-65
2022/06/20 03:33:34;;;;;;;38.75;17.98;;;;;;;-143.10;40.28;50904.97;4851986;29;20053;-65
2022/06/20 03:36:23;;;;;;;43.70;21.92;;;;;;;-143.10;42.71;50920.63;4852140;29;20058;-65
2022/06/20 03:39:12;;;;;;;73.60;32.25;;;;;;;-143.10;39.17;50918.66;4852005;29;20515;-66
2022/06/20 03:41:56;;;;;;;80.57;39.05;;;;;;;-143.10;38.19;50908.88;4852476;29;20353;-65
2022/06/20 03:44:55;;;;;;;85.93;39.60;;;;;;;-143.10;39.41;50881.47;4851691;29;20595;-66
2022/06/20 03:47:51;;;;;;;83.30;38.67;;;;;;;-143.10;37.99;50877.56;4851897;29;20049;-66
2022/06/20 03:51:01;;;;;;;73.82;35.70;;;;;;;-143.10;40.29;50901.03;4854545;29;20053;-67
2022/06/20 03:54:02;;;;;;;65.35;32.25;;;;;;;-143.10;40.27;50891.25;4835359;29;20072;-67
2022/06/20 03:57:09;;;;;;;36.88;21.48;;;;;;;-143.10;36.48;50877.56;4849057;29;20109;-64
2022/06/20 04:00:13;;;;;;;35.50;18.15;;;;;;;-143.10;38.67;50883.44;4852374;29;20656;-66
2022/06/20 04:03:24;;;;;;;33.15;17.60;;;;;;;-143.10;39.61;50889.31;4851791;29;20514;-65
2022/06/20 04:06:27;;;;;;;42.63;19.38;;;;;;;-143.10;35.89;50889.31;4836619;29;20050;-68
2022/06/20 04:13:07;;;;;;;40.83;21.90;;;;;;;-143.10;38.11;50901.03;4833410;29;20050;-66
2022/06/20 04:16:09;;;;;;;40.15;21.00;;;;;;;-143.10;37.90;50846.22;4833574;29;20492;-67
2022/06/20 04:19:11;;;;;;;36.60;18.63;;;;;;;-143.10;38.99;50895.16;4833167;29;20133;-66
2022/06/20 04:22:20;;;;;;;40.80;20.67;;;;;;;-143.10;38.40;50912.78;4845831;29;20069;-66
2022/06/20 04:25:17;;;;;;;35.25;19.30;;;;;;;-143.10;39.83;50891.25;4833437;29;20189;-67
2022/06/20 04:28:17;;;;;;;45.58;24.52;;;;;;;-143.10;37.58;50904.97;4833274;29;20083;-64
2022/06/20 04:31:12;;;;;;;50.00;21.70;;;;;;;-143.10;37.79;50889.31;4833758;29;20819;-66
2022/06/20 04:34:23;;;;;;;40.17;21.92;;;;;;;-143.10;37.31;50861.88;4836642;29;20058;-66
2022/06/20 04:37:33;;;;;;;40.63;21.58;;;;;;;-143.10;38.02;50893.22;4836835;29;20737;-66
2022/06/20 04:40:29;;;;;;;42.35;20.67;;;;;;;-143.10;38.68;50903.00;4836862;29;20467;-66
2022/06/20 04:43:36;;;;;;;41.05;20.83;;;;;;;-143.10;38.26;50889.31;4836529;29;20123;-66
2022/06/20 04:46:45;;;;;;;44.17;21.10;;;;;;;-143.10;38.25;50877.56;4849434;29;20507;-66
2022/06/20 04:49:41;;;;;;;47.42;20.75;;;;;;;-143.10;38.51;50901.03;4853403;29;20049;-66
2022/06/20 04:52:34;;;;;;;42.70;21.23;;;;;;;-143.10;41.43;50850.16;4857018;29;20057;-66
2022/06/20 04:55:25;;;;;;;44.38;22.75;;;;;;;-143.10;40.04;50881.47;4854340;29;20069;-66
2022/06/20 04:58:12;;;;;;;43.40;22.90;;;;;;;-143.10;39.00;50904.97;4855258;29;20141;-66
2022/06/20 05:01:03;;;;;;;53.75;25.88;;;;;;;-143.10;40.31;50856.03;4854898;29;20536;-66
2022/06/20 05:04:02;;;;;;;46.65;24.38;;;;;;;-143.10;40.61;50885.38;4855213;29;20517;-66
2022/06/20 05:06:53;;;;;;;45.47;25.63;;;;;;;-143.10;42.20;50883.44;4838171;29;20041;-66
2022/06/20 05:10:05;;;;;;;50.78;28.13;;;;;;;-143.10;39.18;50861.88;4854791;29;20065;-66
2022/06/20 05:12:53;;;;;;;45.50;25.05;;;;;;;-143.10;39.38;50885.38;4854853;29;20069;-66
2022/06/20 05:15:52;;;;;;;52.60;25.73;;;;;;;-143.10;40.14;50891.25;4854711;29;20049;-67
2022/06/20 05:18:44;;;;;;;40.47;25.08;;;;;;;-143.10;41.38;50861.88;4854990;29;20115;-66
2022/06/20 05:21:43;;;;;;;50.08;26.17;;;;;;;-143.10;41.52;50899.09;4854247;29;20050;-65
2022/06/20 05:24:30;;;;;;;50.28;27.23;;;;;;;-143.10;42.81;50903.00;4853230;29;20061;-66
2022/06/20 05:27:35;;;;;;;57.08;28.13;;;;;;;-143.10;45.67;50895.16;4854781;29;20070;-67
2022/06/20 05:30:21;;;;;;;47.72;27.67;;;;;;;-143.10;46.68;50869.72;4854281;29;20054;-67
2022/06/20 05:33:26;;;;;;;50.83;26.75;;;;;;;-143.10;43.38;50901.03;4854237;29;20080;-66
2022/06/20 05:36:18;;;;;;;55.25;27.08;;;;;;;-143.10;45.67;50904.97;4853832;29;20160;-67
2022/06/20 05:39:26;;;;;;;53.17;25.55;;;;;;;-143.10;42.91;50906.91;4854255;29;20388;-67
2022/06/20 05:42:17;;;;;;;48.25;25.52;;;;;;;-143.10;46.57;50861.88;4853728;29;20456;-67
2022/06/20 05:45:06;;;;;;;56.72;26.02;;;;;;;-143.10;45.29;50897.13;4853245;29;20095;-67
2022/06/20 05:47:58;;;;;;;50.75;26.33;;;;;;;-143.10;47.80;50885.38;4839516;29;20157;-66
2022/06/20 05:50:54;;;;;;;53.80;25.38;;;;;;;-143.10;44.24;50893.22;4853893;29;20563;-66
2022/06/20 05:53:59;;;;;;;41.80;23.80;;;;;;;-143.10;40.74;50893.22;4855377;29;20050;-68
2022/06/20 05:56:37;;;;;;;45.13;24.15;;;;;;;-143.10;42.13;50848.19;4854266;29;20141;-67
2022/06/20 05:59:29;;;;;;;41.30;21.42;;;;;;;-143.10;42.11;50857.97;4853720;29;20123;-68
2022/06/20 06:02:21;;;;;;;43.50;23.27;;;;;;;-143.10;40.87;50861.88;4856099;29;20053;-68
2022/06/20 06:05:13;;;;;;;43.50;20.27;;;;;;;-143.10;44.85;50879.50;4854937;29;20069;-68
2022/06/20 06:08:07;;;;;;;40.10;19.95;;;;;;;-143.10;45.01;50863.84;4868183;29;20054;-67
2022/06/20 06:12:01;;;;;;;44.85;21.58;;;;;;;-143.10;42.40;50850.16;4853260;29;20160;-67
2022/06/20 06:14:59;;;;;;;47.17;23.73;;;;;;;-143.10;40.10;50885.38;4843440;29;20117;-68
2022/06/20 06:17:53;;;;;;;44.53;22.75;;;;;;;-143.10;41.30;50889.31;4853708;29;20098;-68
2022/06/20 06:20:38;;;;;;;43.72;22.55;;;;;;;-143.10;41.89;50869.72;4853867;29;20053;-68
2022/06/20 06:23:27;;;;;;;40.08;20.80;;;;;;;-143.10;43.91;50889.31;4853740;29;20057;-68
2022/06/20 06:26:09;;;;;;;33.38;19.83;;;;;;;-143.10;43.32;50889.31;4868147;29;20061;-68
2022/06/20 06:28:58;;;;;;;37.45;20.40;;;;;;;-143.10;39.65;50834.47;4866497;29;20049;-67
2022/06/20 06:31:55;;;;;;;42.33;19.42;;;;;;;-143.10;40.09;50883.44;4853547;29;20391;-67
2022/06/20 06:34:40;;;;;;;40.75;18.50;;;;;;;-143.10;40.29;50838.41;4853437;29;20096;-68
2022/06/20 06:37:36;;;;;;;47.53;19.15;;;;;;;-143.10;40.95;50848.19;4853483;29;20057;-68
2022/06/20 06:40:26;;;;;;;38.45;17.83;;;;;;;-143.10;39.04;50861.88;4852874;29;20058;-68
2022/06/20 06:43:53;;;;;;;34.40;17.92;;;;;;;-143.10;45.08;50852.09;4853093;29;20152;-68
2022/06/20 06:46:41;;;;;;;39.78;17.02;;;;;;;-143.10;41.57;50850.16;4813791;29;20155;-68
2022/06/20 06:49:49;;;;;;;34.13;17.60;;;;;;;-143.10;39.63;50850.16;4851525;29;20054;-68
2022/06/20 06:52:47;;;;;;;38.20;17.15;;;;;;;-143.10;40.71;50834.47;4855184;29;20065;-68
2022/06/20 06:55:41;;;;;;;37.67;17.38;;;;;;;-143.10;39.44;50844.28;4833537;29;20157;-68
2022/06/20 06:58:33;;;;;;;36.15;16.13;;;;;;;-143.10;39.40;50887.34;4834252;29;20145;-68
2022/06/20 07:01:26;;;;;;;30.65;16.02;;;;;;;-143.10;41.84;50850.16;4832943;29;20061;-68
2022/06/20 07:04:23;;;;;;;26.45;16.02;;;;;;;-143.10;40.80;50869.72;4834626;29;20042;-68
2022/06/20 07:07:18;;;;;;;29.70;15.32;;;;;;;-143.10;39.99;50850.16;4830000;29;20701;-68
2022/06/20 07:10:02;;;;;;;29.58;14.95;;;;;;;-143.10;39.98;50852.09;4848968;29;20141;-67
2022/06/20 07:13:02;;;;;;;32.53;14.88;;;;;;;-143.10;38.16;50842.31;4834257;29;20061;-68
2022/06/20 07:15:39;;;;;;;24.02;14.43;;;;;;;-143.10;40.04;50850.16;4832717;29;20423;-67
2022/06/20 07:18:41;;;;;;;27.77;13.98;;;;;;;-143.10;40.26;50834.47;4834068;29;20126;-68
2022/06/20 07:21:32;;;;;;;25.58;13.10;;;;;;;-143.10;45.29;50854.06;4832679;29;20056;-68
2022/06/20 07:24:23;;;;;;;25.27;13.02;;;;;;;-143.10;40.56;50834.47;4834099;29;20077;-66
2022/06/20 07:27:28;;;;;;;28.40;12.55;;;;;;;-143.10;41.71;50852.09;4833381;29;20045;-67
2022/06/20 07:30:18;;;;;;;23.70;11.38;;;;;;;-143.10;39.12;50844.28;4834016;29;20053;-68
2022/06/20 07:33:34;;;;;;;22.10;11.13;;;;;;;-143.10;38.36;50865.81;4834227;29;20423;-67
2022/06/20 07:36:22;;;;;;;20.45;9.95;;;;;;;-143.10;39.57;50850.16;4833247;29;20121;-67
2022/06/20 07:39:20;;;;;;;29.42;11.18;;;;;;;-143.10;43.95;50846.22;4834011;29;20057;-67
2022/06/20 07:42:26;;;;;;;19.95;10.65;;;;;;;-143.10;40.57;50818.81;4833269;29;20058;-67
2022/06/20 07:45:09;;;;;;;16.33;10.18;;;;;;;-143.10;39.41;50828.59;4843658;29;20046;-68
2022/06/20 07:48:33;;;;;;;22.55;10.82;;;;;;;-143.10;41.76;50875.59;4842694;29;20057;-68
2022/06/20 07:51:24;;;;;;;22.63;10.60;;;;;;;-143.10;43.53;50846.22;4833202;29;20684;-69
2022/06/20 07:54:27;;;;;;;19.35;10.68;;;;;;;-143.10;40.66;50857.97;4844787;29;20141;-68
2022/06/20 07:57:31;;;;;;;27.10;10.40;;;;;;;-143.10;39.55;50824.69;4851557;29;20085;-68
2022/06/20 08:00:27;;;;;;;22.67;10.77;;;;;;;-143.10;41.73;50838.41;4852252;29;20676;-68
2022/06/20 08:03:23;;;;;;;28.17;13.35;;;;;;;-143.10;40.33;50832.53;4852090;29;20054;-69
2022/06/20 08:06:21;;;;;;;25.20;12.18;;;;;;;-143.10;39.69;50840.34;4852091;29;20141;-68
2022/06/20 08:09:08;;;;;;;24.65;12.18;;;;;;;-143.10;40.00;50811.00;4858643;29;20176;-68
2022/06/20 08:12:00;;;;;;;20.10;11.30;;;;;;;-143.10;40.52;50857.97;4858752;29;20046;-67
2022/06/20 08:15:31;;;;;;;24.65;10.85;;;;;;;-143.10;45.24;50854.06;4859749;29;20069;-67
2022/06/20 08:18:07;;;;;;;22.45;10.45;;;;;;;-143.10;41.06;50861.88;4857603;29;20061;-68
2022/06/20 08:21:23;;;;;;;30.08;11.02;;;;;;;-143.10;42.17;50848.19;4856342;29;20564;-68
2022/06/20 08:24:04;;;;;;;17.75;9.40;;;;;;;-143.10;41.22;50852.09;4868997;29;20096;-68
2022/06/20 08:27:06;;;;;;;18.35;8.23;;;;;;;-143.10;40.99;50854.06;4841803;29;20061;-68
2022/06/20 08:30:09;;;;;;;15.63;7.32;;;;;;;-143.10;42.29;50859.94;4858364;29;20131;-68
2022/06/20 08:33:05;;;;;;;15.00;6.95;;;;;;;-143.10;41.53;50873.63;4857910;29;20109;-68
2022/06/20 08:35:58;;;;;;;15.23;7.40;;;;;;;-143.10;43.27;50859.94;4858015;29;20069;-69
2022/06/20 08:38:53;;;;;;;13.02;5.90;;;;;;;-143.10;43.59;50834.47;4857956;29;20069;-68
2022/06/20 08:41:59;;;;;;;15.20;6.93;;;;;;;-143.10;43.20;50846.22;4857980;29;20354;-68
2022/06/20 08:45:18;;;;;;;13.70;6.05;;;;;;;-143.10;40.53;50854.06;4857831;29;20049;-68
2022/06/20 08:48:41;;;;;;;18.20;5.72;;;;;;;-143.10;42.04;50838.41;4856289;29;20398;-68
2022/06/20 08:52:06;;;;;;;15.70;7.50;;;;;;;-143.10;43.32;50850.16;4857792;29;20045;-69
2022/06/20 08:55:07;;;;;;;15.35;6.40;;;;;;;-143.10;43.16;50859.94;4860981;29;20064;-67
2022/06/20 08:58:02;;;;;;;16.17;7.07;;;;;;;-143.10;42.16;50856.03;4838346;29;20458;-68
2022/06/20 09:01:00;;;;;;;16.67;8.20;;;;;;;-143.10;42.09;50873.63;4838482;29;20046;-67
2022/06/20 09:04:13;;;;;;;12.80;7.53;;;;;;;-143.10;44.11;50830.56;4838196;29;20058;-67
2022/06/20 09:07:11;;;;;;;10.40;6.15;;;;;;;-143.10;41.06;50865.81;4838918;29;20088;-68
2022/06/20 09:10:21;;;;;;;12.90;6.20;;;;;;;-143.10;41.72;50838.41;4838689;29;20141;-67
2022/06/20 09:13:34;;;;;;;10.60;5.70;;;;;;;-143.10;44.68;50795.34;4838239;29;20053;-68
2022/06/20 09:16:56;;;;;;;19.73;7.07;;;;;;;-143.10;43.04;50867.75;4838688;29;20078;-67
2022/06/20 09:19:52;;;;;;;15.30;6.20;;;;;;;-143.10;41.39;50826.66;4836097;29;20045;-68
2022/06/20 09:23:19;;;;;;;13.85;6.15;;;;;;;-143.10;42.04;50826.66;4835261;29;20050;-67
2022/06/20 09:26:33;;;;;;;11.50;5.28;;;;;;;-143.10;43.38;50832.53;4834478;29;20053;-68
2022/06/20 09:29:18;;;;;;;18.63;6.47;;;;;;;-143.10;41.41;50850.16;4835943;29;20058;-67
2022/06/20 09:32:40;;;;;;;12.07;6.53;;;;;;;-143.10;43.43;50826.66;4836534;29;20064;-66
2022/06/20 09:35:53;;;;;;;10.18;4.97;;;;;;;-143.10;41.91;50857.97;4835824;29;20057;-68
2022/06/20 09:38:53;;;;;;;13.40;5.80;;;;;;;-143.10;43.33;50807.06;4836149;29;20065;-68
2022/06/20 09:41:50;;;;;;;15.45;5.38;;;;;;;-143.10;43.88;50820.78;4836044;29;20149;-68
2022/06/20 09:45:16;;;;;;;17.23;6.05;;;;;;;-143.10;43.25;50799.25;4835800;29;20061;-68
2022/06/20 09:48:01;;;;;;;22.67;7.72;;;;;;;-143.10;43.94;50854.06;4825390;29;20666;-68
2022/06/20 09:51:05;;;;;;;9.18;5.45;;;;;;;-143.10;41.26;50832.53;4854405;29;20073;-68
2022/06/20 09:54:02;;;;;;;17.40;6.05;;;;;;;-143.10;42.56;50834.47;4847707;29;20054;-68
2022/06/20 09:57:09;;;;;;;15.80;6.35;;;;;;;-143.10;41.19;50842.31;4846771;29;20060;-68
2022/06/20 10:00:31;;;;;;;13.95;6.55;;;;;;;-143.10;42.36;50824.69;4853975;29;20061;-68
2022/06/20 10:03:41;;;;;;;12.90;5.78;;;;;;;-143.10;41.48;50865.81;4853971;29;20053;-69
2022/06/20 10:06:47;;;;;;;10.18;5.40;;;;;;;-143.10;40.72;50857.97;4854257;29;20526;-69
2022/06/20 10:09:45;;;;;;;15.85;5.80;;;;;;;-143.10;41.22;50842.31;4853813;29;20061;-68
2022/06/20 10:12:34;;;;;;;16.13;5.53;;;;;;;-143.10;40.97;50826.66;4853375;29;20068;-72
2022/06/20 10:16:00;;;;;;;11.25;5.03;;;;;;;-143.10;42.66;50869.72;4852663;29;20153;-67
2022/06/20 10:19:05;;;;;;;10.20;6.15;;;;;;;-143.10;42.20;50830.56;4855418;29;20050;-67
2022/06/20 10:22:11;;;;;;;17.02;7.18;;;;;;;-143.10;42.31;50814.91;4854747;29;20057;-67
2022/06/20 10:25:52;;;;;;;18.90;7.65;;;;;;;-143.10;41.52;50834.47;4866904;29;20060;-68
2022/06/20 10:29:24;;;;;;;11.90;7.40;;;;;;;-143.10;41.48;50822.75;4844968;29;20147;-68
2022/06/20 10:32:26;;;;;;;13.25;7.00;;;;;;;-143.10;42.41;50834.47;4852896;29;20105;-68
2022/06/20 10:35:34;;;;;;;14.52;7.88;;;;;;;-143.10;41.45;50816.88;4853082;29;20129;-69
2022/06/20 10:38:47;;;;;;;12.90;6.93;;;;;;;-143.10;41.09;50832.53;4852866;29;20121;-68
2022/06/20 10:41:49;;;;;;;14.23;6.35;;;;;;;-143.10;42.93;50854.06;4867532;29;20049;-68
2022/06/20 10:45:16;;;;;;;15.52;6.78;;;;;;;-143.10;43.12;50846.22;4853108;29;20061;-68
2022/06/20 10:48:14;;;;;;;18.35;8.38;;;;;;;-143.10;42.91;50834.47;4852264;29;20073;-68
2022/06/20 10:51:01;;;;;;;13.63;7.25;;;;;;;-143.10;40.41;50852.09;4852815;29;20053;-68
2022/06/20 10:54:21;;;;;;;17.02;7.13;;;;;;;-143.10;40.73;50830.56;4850192;29;20065;-68
2022/06/20 10:57:20;;;;;;;14.73;6.53;;;;;;;-143.10;40.45;50836.44;4849614;29;20058;-67
2022/06/20 11:00:25;;;;;;;12.18;7.18;;;;;;;-143.10;44.22;50805.13;4844086;29;20049;-67
2022/06/20 11:03:30;;;;;;;12.65;5.85;;;;;;;-143.10;42.66;50834.47;4852291;29;20061;-68
2022/06/20 11:06:29;;;;;;;10.68;5.68;;;;;;;-143.10;41.18;50799.25;4837609;29;20065;-68
2022/06/20 11:09:25;;;;;;;14.63;5.60;;;;;;;-143.10;41.26;50812.94;4852632;29;20450;-68
2022/06/20 11:12:35;;;;;;;15.50;4.97;;;;;;;-143.10;40.51;50814.91;4852361;29;20045;-69
2022/06/20 11:15:39;;;;;;;9.20;4.65;;;;;;;-143.10;41.67;50805.13;4837666;29;20481;-68
2022/06/20 11:18:49;;;;;;;17.77;5.68;;;;;;;-143.10;42.11;50832.53;4852057;29;20057;-67
2022/06/20 11:21:42;;;;;;;13.13;5.22;;;;;;;-143.10;41.72;50816.88;4852074;29;20050;-67
2022/06/20 11:24:53;;;;;;;18.95;5.63;;;;;;;-143.10;41.57;50803.16;4852509;29;20421;-68
2022/06/20 11:27:42;;;;;;;16.13;6.38;;;;;;;-143.10;41.18;50830.56;4852630;29;20062;-67
2022/06/20 11:30:48;;;;;;;10.60;5.07;;;;;;;-143.10;40.26;50809.03;4851965;29;20065;-68
2022/06/20 11:34:01;;;;;;;12.77;5.00;;;;;;;-143.10;41.97;50826.66;4852051;29;20130;-68
2022/06/20 11:37:11;;;;;;;16.45;4.50;;;;;;;-143.10;42.31;50791.41;4851787;29;20045;-68
2022/06/20 11:40:10;;;;;;;15.00;4.80;;;;;;;-143.10;42.02;50791.41;4851860;29;20053;-68
2022/06/20 11:43:15;;;;;;;11.25;4.93;;;;;;;-143.10;43.72;50809.03;4851390;29;20053;-68
2022/06/20 11:46:32;;;;;;;19.52;4.68;;;;;;;-143.10;41.64;50856.03;4864283;29;20053;-68
2022/06/20 11:49:49;;;;;;;11.32;4.90;;;;;;;-143.10;43.24;50830.56;4848464;29;20057;-67
2022/06/20 11:52:41;;;;;;;11.50;4.72;;;;;;;-143.10;44.41;50836.44;4847175;29;20170;-68
2022/06/20 11:55:35;;;;;;;13.07;4.45;;;;;;;-143.10;43.41;50844.28;4851601;29;20489;-67
2022/06/20 11:58:29;;;;;;;10.38;5.53;;;;;;;-143.10;42.50;50826.66;4852085;29;20577;-67
2022/06/20 12:01:33;;;;;;;25.77;4.80;;;;;;;-143.10;44.94;50836.44;4851822;29;20057;-68
2022/06/20 12:04:34;;;;;;;19.88;4.85;;;;;;;-143.10;43.62;50861.88;4851515;29;20514;-68
2022/06/20 12:07:52;;;;;;;18.42;4.80;;;;;;;-143.10;43.68;50801.19;4833027;29;20068;-68
2022/06/20 12:10:50;;;;;;;10.00;4.70;;;;;;;-143.10;42.95;50814.91;4845711;29;20058;-68
2022/06/20 12:13:55;;;;;;;17.77;4.90;;;;;;;-143.10;43.05;50803.16;4832048;29;20157;-68
2022/06/20 12:17:20;;;;;;;10.35;4.78;;;;;;;-143.10;43.14;50814.91;4832156;29;20054;-68
2022/06/20 12:23:48;;;;;;;17.35;5.00;;;;;;;-143.10;42.37;50801.19;4869696;29;20461;-67
2022/06/20 12:26:45;;;;;;;12.85;5.35;;;;;;;-143.10;43.12;50824.69;4870672;29;20057;-68
2022/06/20 12:29:24;;;;;;;13.23;4.90;;;;;;;-143.10;43.52;50820.78;4870545;29;20077;-68
2022/06/20 12:32:40;;;;;;;19.60;6.68;;;;;;;-143.10;43.42;50816.88;4871024;29;20100;-67
2022/06/20 12:35:21;;;;;;;16.08;5.30;;;;;;;-143.10;43.50;50820.78;4870645;29;20562;-68
2022/06/20 12:38:41;;;;;;;11.40;4.90;;;;;;;-143.10;43.87;50846.22;4869934;29;20125;-68
2022/06/20 12:41:34;;;;;;;18.40;5.50;;;;;;;-143.10;44.85;50826.66;4847801;29;20100;-68
2022/06/20 12:44:33;;;;;;;15.88;5.43;;;;;;;-143.10;44.42;50803.16;4851693;29;20374;-68
2022/06/20 12:47:22;;;;;;;15.95;5.15;;;;;;;-143.10;43.88;50830.56;4850455;29;20406;-68
2022/06/20 12:50:24;;;;;;;14.43;5.25;;;;;;;-143.10;44.87;50814.91;4851447;29;20125;-67
2022/06/20 12:53:17;;;;;;;14.93;5.32;;;;;;;-143.10;43.32;50850.16;4851785;29;20060;-68
2022/06/20 12:56:50;;;;;;;13.52;5.60;;;;;;;-143.10;44.37;50822.75;4837105;29;20058;-68
2022/06/20 13:00:01;;;;;;;12.40;5.25;;;;;;;-143.10;45.57;50834.47;4851508;29;20060;-68
2022/06/20 13:03:03;;;;;;;12.43;5.00;;;;;;;-143.10;45.61;50799.25;4852446;29;20125;-67
2022/06/20 13:05:48;;;;;;;11.48;5.53;;;;;;;-143.10;46.54;50811.00;4855172;29;20113;-67
2022/06/20 13:08:37;;;;;;;11.35;5.80;;;;;;;-143.10;48.89;50822.75;4854814;29;20125;-66
2022/06/20 13:11:25;;;;;;;21.35;6.03;;;;;;;-143.10;46.79;50846.22;4854731;29;20473;-66
2022/06/20 13:15:14;;;;;;;12.40;5.60;;;;;;;-143.10;46.23;50814.91;4854699;29;20053;-67
2022/06/20 13:18:04;;;;;;;11.38;5.30;;;;;;;-143.10;47.21;50816.88;4854107;29;20407;-66
2022/06/20 13:21:16;;;;;;;14.38;5.50;;;;;;;-143.10;47.62;50826.66;4854745;29;20054;-67
2022/06/20 13:24:04;;;;;;;12.05;5.22;;;;;;;-143.10;46.80;50844.28;4854549;29;20060;-67
2022/06/20 13:27:24;;;;;;;10.23;5.22;;;;;;;-143.10;46.07;50842.31;4854810;29;20109;-67
2022/06/20 13:30:53;;;;;;;12.75;6.10;;;;;;;-143.10;46.57;50850.16;4854841;29;20041;-67
2022/06/20 13:33:54;;;;;;;14.20;5.72;;;;;;;-143.10;46.99;50854.06;4845193;29;20057;-67
2022/06/20 13:36:55;;;;;;;9.07;5.00;;;;;;;-143.10;49.98;50846.22;4868908;29;20164;-68